createdAt,value
2022-12-08T00:02:24.466Z,2.70
2022-12-08T00:06:48.187Z,2.60
2022-12-08T00:10:52.972Z,2.70
2022-12-08T00:14:56.301Z,2.60
2022-12-08T00:18:59.477Z,2.60
2022-12-08T00:23:04.326Z,2.60
2022-12-08T00:27:09.414Z,2.60
2022-12-08T00:31:13.167Z,2.70
2022-12-08T00:35:16.650Z,2.60
2022-12-08T00:39:25.882Z,2.70
2022-12-08T00:43:30.552Z,2.60
2022-12-08T00:47:33.878Z,2.60
2022-12-08T00:51:37.308Z,2.70
2022-12-08T00:55:40.692Z,2.70
2022-12-08T00:59:45.363Z,2.60
2022-12-08T01:03:48.946Z,2.60
2022-12-08T01:07:52.174Z,2.50
2022-12-08T01:11:55.608Z,2.60
2022-12-08T01:16:00.206Z,2.50
2022-12-08T01:20:03.880Z,2.50
2022-12-08T01:24:08.110Z,2.50
2022-12-08T01:28:11.421Z,2.40
2022-12-08T01:32:16.013Z,2.40
2022-12-08T01:36:22.171Z,2.40
2022-12-08T01:40:25.551Z,2.30
2022-12-08T01:44:59.023Z,2.40
2022-12-08T01:49:08.619Z,2.30
2022-12-08T01:53:15.793Z,2.30
2022-12-08T01:57:24.337Z,2.30
2022-12-08T02:01:27.723Z,2.30
2022-12-08T02:05:34.611Z,2.30
2022-12-08T02:09:39.543Z,2.40
2022-12-08T02:13:44.167Z,2.40
2022-12-08T02:17:59.966Z,2.50
2022-12-08T02:22:11.858Z,2.50
2022-12-08T02:27:06.144Z,2.50
2022-12-08T02:31:21.821Z,2.40
2022-12-08T02:35:34.285Z,2.40
2022-12-08T02:39:43.888Z,2.40
2022-12-08T02:43:50.108Z,2.40
2022-12-08T02:47:54.036Z,2.50
2022-12-08T02:52:07.903Z,2.50
2022-12-08T02:56:24.205Z,2.50
2022-12-08T03:00:31.252Z,2.60
2022-12-08T03:04:42.662Z,2.60
2022-12-08T03:08:53.055Z,2.50
2022-12-08T03:13:01.878Z,2.40
2022-12-08T03:17:06.822Z,2.50
2022-12-08T03:21:11.927Z,2.50
2022-12-08T03:25:18.738Z,2.50
2022-12-08T03:29:22.219Z,2.50
2022-12-08T03:33:30.207Z,2.50
2022-12-08T03:37:36.788Z,2.50
2022-12-08T03:41:41.506Z,2.50
2022-12-08T03:45:44.695Z,2.50
2022-12-08T03:49:48.000Z,2.60
2022-12-08T03:53:51.716Z,2.60
2022-12-08T03:57:56.381Z,2.50
2022-12-08T04:01:59.688Z,2.50
2022-12-08T04:06:03.068Z,2.60
2022-12-08T04:10:07.549Z,2.60
2022-12-08T04:14:12.464Z,2.50
2022-12-08T04:18:15.969Z,2.50
2022-12-08T04:22:19.242Z,2.60
2022-12-08T04:26:22.488Z,2.50
2022-12-08T04:30:28.595Z,2.50
2022-12-08T04:34:31.807Z,2.50
2022-12-08T04:38:35.782Z,2.60
2022-12-08T04:42:39.319Z,2.60
2022-12-08T04:46:44.091Z,2.60
2022-12-08T04:50:47.506Z,2.70
2022-12-08T04:54:51.869Z,2.50
2022-12-08T04:58:55.111Z,2.60
2022-12-08T05:02:59.750Z,2.60
2022-12-08T05:07:03.294Z,2.60
2022-12-08T05:11:08.162Z,2.60
2022-12-08T05:15:11.930Z,2.60
2022-12-08T05:19:17.577Z,2.60
2022-12-08T05:23:21.135Z,2.60
2022-12-08T05:27:24.358Z,2.50
2022-12-08T05:31:27.903Z,2.50
2022-12-08T05:35:32.717Z,2.60
2022-12-08T05:39:36.314Z,2.50
2022-12-08T05:43:39.527Z,2.50
2022-12-08T05:47:42.909Z,2.50
2022-12-08T05:51:47.565Z,2.50
2022-12-08T05:55:50.940Z,2.60
2022-12-08T05:59:54.159Z,2.60
2022-12-08T06:03:58.992Z,2.50
2022-12-08T06:08:03.809Z,2.60
2022-12-08T06:12:07.799Z,2.60
2022-12-08T06:16:11.086Z,2.50
2022-12-08T06:20:14.975Z,2.50
2022-12-08T06:24:19.734Z,2.50
2022-12-08T06:28:22.921Z,2.50
2022-12-08T06:32:27.704Z,2.50
2022-12-08T06:36:31.666Z,2.40
2022-12-08T06:40:36.355Z,2.50
2022-12-08T06:44:40.698Z,2.50
2022-12-08T06:48:44.145Z,2.50
2022-12-08T06:52:56.919Z,2.40
2022-12-08T06:57:03.193Z,2.40
2022-12-08T07:01:08.467Z,2.40
2022-12-08T07:05:11.803Z,2.50
2022-12-08T07:09:15.251Z,2.50
2022-12-08T07:13:21.133Z,2.50
2022-12-08T07:17:24.633Z,2.50
2022-12-08T07:21:27.942Z,2.50
2022-12-08T07:25:31.252Z,2.50
2022-12-08T07:29:35.957Z,2.50
2022-12-08T07:33:39.169Z,2.50
2022-12-08T07:37:42.841Z,2.30
2022-12-08T07:41:46.239Z,2.40
2022-12-08T07:45:51.588Z,2.40
2022-12-08T07:49:54.976Z,2.50
2022-12-08T07:53:58.147Z,2.70
2022-12-08T07:58:01.603Z,2.60
2022-12-08T08:02:23.499Z,2.70
2022-12-08T08:06:28.746Z,2.80
2022-12-08T08:10:32.115Z,2.80
2022-12-08T08:14:35.326Z,2.90
2022-12-08T08:18:40.450Z,2.90
2022-12-08T08:22:43.661Z,2.90
2022-12-08T08:26:47.014Z,2.90
2022-12-08T08:30:50.250Z,2.90
2022-12-08T08:34:55.019Z,3.00
2022-12-08T08:38:58.423Z,2.90
2022-12-08T08:43:02.082Z,3.00
2022-12-08T08:47:05.462Z,3.10
2022-12-08T08:51:12.043Z,3.10
2022-12-08T08:55:15.509Z,3.10
2022-12-08T08:59:18.725Z,3.10
2022-12-08T09:03:24.070Z,3.00
2022-12-08T09:07:28.722Z,3.00
2022-12-08T09:11:33.113Z,3.00
2022-12-08T09:15:36.575Z,3.20
2022-12-08T09:19:39.860Z,3.30
2022-12-08T09:23:45.585Z,3.40
2022-12-08T09:27:48.762Z,3.40
2022-12-08T09:31:52.339Z,3.40
2022-12-08T09:35:55.628Z,3.50
2022-12-08T09:40:00.191Z,3.50
2022-12-08T09:44:15.436Z,3.60
2022-12-08T09:48:21.679Z,3.60
2022-12-08T09:52:29.263Z,3.60
2022-12-08T09:56:36.640Z,3.60
2022-12-08T10:00:40.970Z,3.60
2022-12-08T10:04:44.487Z,3.70
2022-12-08T10:09:00.039Z,3.70
2022-12-08T10:13:18.244Z,3.70
2022-12-08T10:17:26.119Z,3.70
2022-12-08T10:21:34.410Z,3.90
2022-12-08T10:25:42.409Z,3.90
2022-12-08T10:29:47.025Z,3.80
2022-12-08T10:33:57.848Z,3.70
2022-12-08T10:38:02.983Z,3.90
2022-12-08T10:42:22.152Z,3.90
2022-12-08T10:46:31.358Z,4.00
2022-12-08T10:50:36.826Z,4.20
2022-12-08T10:54:45.092Z,4.20
2022-12-08T10:58:49.357Z,4.20
2022-12-08T11:02:58.872Z,4.20
2022-12-08T11:07:02.752Z,4.30
2022-12-08T11:11:06.140Z,4.30
2022-12-08T11:15:17.076Z,4.30
2022-12-08T11:19:22.935Z,4.30
2022-12-08T11:23:27.935Z,4.20
2022-12-08T11:27:33.722Z,4.10
2022-12-08T11:31:43.642Z,4.20
2022-12-08T11:35:54.983Z,4.10
2022-12-08T11:40:04.451Z,4.10
2022-12-08T11:44:27.189Z,4.10
2022-12-08T11:48:39.891Z,3.90
2022-12-08T11:52:48.187Z,3.70
2022-12-08T11:56:55.135Z,3.70
2022-12-08T12:00:58.695Z,3.90
2022-12-08T12:05:07.184Z,4.00
2022-12-08T12:09:20.448Z,3.90
2022-12-08T12:13:49.529Z,4.00
2022-12-08T12:17:56.828Z,4.00
2022-12-08T12:22:13.034Z,4.00
2022-12-08T12:26:23.304Z,4.00
2022-12-08T12:30:29.278Z,3.90
2022-12-08T12:34:35.321Z,3.90
2022-12-08T12:38:59.939Z,3.90
2022-12-08T12:43:33.074Z,3.70
2022-12-08T12:47:55.551Z,3.70
2022-12-08T12:51:59.345Z,3.70
2022-12-08T12:56:04.398Z,3.70
2022-12-08T13:00:11.703Z,3.80
2022-12-08T13:04:16.389Z,3.70
2022-12-08T13:08:23.903Z,3.60
2022-12-08T13:12:28.317Z,3.70
2022-12-08T13:16:38.583Z,3.80
2022-12-08T13:20:47.254Z,3.80
2022-12-08T13:24:50.775Z,3.90
2022-12-08T13:29:21.425Z,3.90
2022-12-08T13:33:38.966Z,3.90
2022-12-08T13:37:54.347Z,3.80
2022-12-08T13:42:11.480Z,3.90
2022-12-08T13:47:09.277Z,3.90
2022-12-08T13:56:37.489Z,3.70
2022-12-08T13:59:48.421Z,3.70
2022-12-08T14:04:22.193Z,3.60
2022-12-08T14:09:00.152Z,3.60
2022-12-08T14:13:03.287Z,3.50
2022-12-08T14:17:11.020Z,3.50
2022-12-08T14:21:22.085Z,3.60
2022-12-08T14:25:29.226Z,3.50
2022-12-08T14:29:42.584Z,3.50
2022-12-08T14:33:53.220Z,3.40
2022-12-08T14:38:02.035Z,3.30
2022-12-08T14:42:08.341Z,3.30
2022-12-08T14:46:23.484Z,3.30
2022-12-08T14:50:50.108Z,3.30
2022-12-08T14:54:56.541Z,3.30
2022-12-08T14:59:17.313Z,3.30
2022-12-08T15:03:30.780Z,3.20
2022-12-08T15:07:50.345Z,3.20
2022-12-08T15:12:09.729Z,3.20
2022-12-08T15:16:43.553Z,3.20
2022-12-08T15:21:10.864Z,3.10
2022-12-08T15:25:23.632Z,3.10
2022-12-08T15:29:33.717Z,3.10
2022-12-08T15:33:41.809Z,3.10
2022-12-08T15:37:47.153Z,3.10
2022-12-08T15:41:51.445Z,3.00
2022-12-08T15:46:00.726Z,3.00
2022-12-08T15:50:09.421Z,3.00
2022-12-08T15:54:18.283Z,2.90
2022-12-08T16:03:22.438Z,3.00
2022-12-08T16:07:30.134Z,3.00
2022-12-08T16:12:09.607Z,2.90
2022-12-08T16:16:28.298Z,3.00
2022-12-08T16:20:58.883Z,2.90
2022-12-08T16:25:14.634Z,3.00
2022-12-08T16:29:27.738Z,3.00
2022-12-08T16:33:36.200Z,3.00
2022-12-08T16:37:41.689Z,3.00
2022-12-08T16:42:54.946Z,3.00
2022-12-08T16:52:24.314Z,3.10
2022-12-08T16:56:41.544Z,3.20
2022-12-08T17:06:19.875Z,3.10
2022-12-08T17:10:44.053Z,3.00
2022-12-08T17:14:53.067Z,3.00
2022-12-08T17:19:47.047Z,3.00
2022-12-08T17:23:55.949Z,3.00
2022-12-08T17:28:01.377Z,2.90
2022-12-08T17:32:21.043Z,2.90
2022-12-08T17:42:34.354Z,2.80
2022-12-08T17:46:58.488Z,2.90
2022-12-08T17:51:16.630Z,2.90
2022-12-08T17:55:31.260Z,2.90
2022-12-08T17:59:42.514Z,2.90
2022-12-08T18:03:49.202Z,2.90
2022-12-08T18:08:12.144Z,2.80
2022-12-08T18:12:23.654Z,2.90
2022-12-08T18:16:44.028Z,2.80
2022-12-08T18:21:11.274Z,2.80
2022-12-08T18:31:04.774Z,2.80
2022-12-08T18:35:27.642Z,2.80
2022-12-08T18:39:37.371Z,2.90
2022-12-08T18:43:57.838Z,2.90
2022-12-08T18:48:15.262Z,2.90
2022-12-08T18:52:31.023Z,2.90
2022-12-08T18:56:42.295Z,2.90
2022-12-08T19:00:53.242Z,2.90
2022-12-08T19:05:16.819Z,2.90
2022-12-08T19:09:46.548Z,2.80
2022-12-08T19:14:06.952Z,2.70
2022-12-08T19:18:32.159Z,2.80
2022-12-08T19:22:40.796Z,2.80
2022-12-08T19:26:57.671Z,2.90
2022-12-08T19:31:16.477Z,2.90
2022-12-08T19:35:28.353Z,2.90
2022-12-08T19:40:03.140Z,2.80
2022-12-08T19:44:38.318Z,2.80
2022-12-08T19:48:47.171Z,2.80
2022-12-08T19:53:07.017Z,2.80
2022-12-08T19:57:15.033Z,2.70
2022-12-08T20:01:25.470Z,2.70
2022-12-08T20:05:46.346Z,2.80
2022-12-08T20:09:56.784Z,2.70
2022-12-08T20:14:04.442Z,2.60
2022-12-08T20:18:19.379Z,2.70
2022-12-08T20:22:26.373Z,2.70
2022-12-08T20:26:33.482Z,2.70
2022-12-08T20:30:46.440Z,2.70
2022-12-08T20:34:56.731Z,2.70
2022-12-08T20:39:02.565Z,2.60
2022-12-08T20:43:10.943Z,2.70
2022-12-08T20:47:26.090Z,2.70
2022-12-08T20:51:39.802Z,2.70
2022-12-08T20:55:47.164Z,2.60
2022-12-08T21:00:01.625Z,2.60
2022-12-08T21:04:08.537Z,2.70
2022-12-08T21:08:26.434Z,2.70
2022-12-08T21:12:41.558Z,2.70
2022-12-08T21:16:57.582Z,2.70
2022-12-08T21:21:21.357Z,2.70
2022-12-08T21:25:33.901Z,2.70
2022-12-08T21:34:15.902Z,2.60
2022-12-08T21:38:26.487Z,2.50
2022-12-08T21:43:07.288Z,2.50
2022-12-08T21:52:28.169Z,2.60
2022-12-08T21:56:33.618Z,2.70
2022-12-08T22:00:44.557Z,2.60
2022-12-08T22:04:54.518Z,2.60
2022-12-08T22:08:59.747Z,2.50
2022-12-08T22:13:06.573Z,2.50
2022-12-08T22:17:13.378Z,2.50
2022-12-08T22:21:20.800Z,2.40
2022-12-08T22:25:26.852Z,2.40
2022-12-08T22:29:33.225Z,2.40
2022-12-08T22:33:40.382Z,2.40
2022-12-08T22:37:47.846Z,2.30
2022-12-08T22:41:54.664Z,2.30
2022-12-08T22:46:01.480Z,2.40
2022-12-08T22:50:12.309Z,2.50
2022-12-08T22:54:18.298Z,2.50
2022-12-08T22:58:24.039Z,2.50
2022-12-08T23:02:29.697Z,2.40
2022-12-08T23:06:37.067Z,2.30
2022-12-08T23:10:44.334Z,2.30
2022-12-08T23:14:51.826Z,2.30
2022-12-08T23:18:56.555Z,2.30
2022-12-08T23:23:04.696Z,2.40
2022-12-08T23:27:11.727Z,2.30
2022-12-08T23:31:17.811Z,2.30
2022-12-08T23:35:23.161Z,2.20
2022-12-08T23:39:30.950Z,2.30
2022-12-08T23:43:36.504Z,2.30
2022-12-08T23:47:43.258Z,2.30
2022-12-08T23:51:48.504Z,2.10
2022-12-08T23:56:02.489Z,2.10
